sensor_id;sensor_type;location;lat;lon;timestamp;P1;durP1;ratioP1;P2;durP2;ratioP2
18296;SDS011;18066;52.106;5.534;2023-01-16T00:01:39;2.53;;;1.73;;
18296;SDS011;18066;52.106;5.534;2023-01-16T00:04:07;3.03;;;0.93;;
18296;SDS011;18066;52.106;5.534;2023-01-16T00:06:34;4.17;;;1.03;;
18296;SDS011;18066;52.106;5.534;2023-01-16T00:09:01;4.70;;;1.73;;
18296;SDS011;18066;52.106;5.534;2023-01-16T00:11:28;2.23;;;1.10;;
18296;SDS011;18066;52.106;5.534;2023-01-16T00:13:55;4.97;;;1.73;;
18296;SDS011;18066;52.106;5.534;2023-01-16T00:16:23;7.60;;;1.30;;
18296;SDS011;18066;52.106;5.534;2023-01-16T00:18:50;4.70;;;1.60;;
18296;SDS011;18066;52.106;5.534;2023-01-16T00:21:18;1.93;;;1.43;;
18296;SDS011;18066;52.106;5.534;2023-01-16T00:23:45;5.17;;;1.63;;
18296;SDS011;18066;52.106;5.534;2023-01-16T00:26:12;7.43;;;2.00;;
18296;SDS011;18066;52.106;5.534;2023-01-16T00:28:39;2.53;;;1.70;;
18296;SDS011;18066;52.106;5.534;2023-01-16T00:31:06;5.27;;;2.07;;
18296;SDS011;18066;52.106;5.534;2023-01-16T00:33:33;5.07;;;1.83;;
18296;SDS011;18066;52.106;5.534;2023-01-16T00:36:00;5.70;;;2.07;;
18296;SDS011;18066;52.106;5.534;2023-01-16T00:38:29;3.40;;;2.00;;
18296;SDS011;18066;52.106;5.534;2023-01-16T00:40:56;3.40;;;2.27;;
18296;SDS011;18066;52.106;5.534;2023-01-16T00:43:23;2.93;;;2.00;;
18296;SDS011;18066;52.106;5.534;2023-01-16T00:45:50;3.23;;;1.80;;
18296;SDS011;18066;52.106;5.534;2023-01-16T00:48:16;3.30;;;2.30;;
18296;SDS011;18066;52.106;5.534;2023-01-16T00:50:43;2.70;;;2.50;;
18296;SDS011;18066;52.106;5.534;2023-01-16T00:53:10;3.80;;;2.60;;
18296;SDS011;18066;52.106;5.534;2023-01-16T00:55:38;5.27;;;2.73;;
18296;SDS011;18066;52.106;5.534;2023-01-16T00:58:06;3.30;;;2.77;;
18296;SDS011;18066;52.106;5.534;2023-01-16T01:00:33;6.33;;;3.60;;
18296;SDS011;18066;52.106;5.534;2023-01-16T01:03:00;7.57;;;3.07;;
18296;SDS011;18066;52.106;5.534;2023-01-16T01:05:27;5.27;;;3.10;;
18296;SDS011;18066;52.106;5.534;2023-01-16T01:07:54;7.47;;;3.67;;
18296;SDS011;18066;52.106;5.534;2023-01-16T01:10:21;3.73;;;3.30;;
18296;SDS011;18066;52.106;5.534;2023-01-16T01:12:50;5.33;;;3.63;;
18296;SDS011;18066;52.106;5.534;2023-01-16T01:15:19;7.53;;;4.60;;
18296;SDS011;18066;52.106;5.534;2023-01-16T01:17:46;6.67;;;4.90;;
18296;SDS011;18066;52.106;5.534;2023-01-16T01:20:12;11.53;;;5.53;;
18296;SDS011;18066;52.106;5.534;2023-01-16T01:22:39;8.20;;;5.67;;
18296;SDS011;18066;52.106;5.534;2023-01-16T01:25:06;12.13;;;6.53;;
18296;SDS011;18066;52.106;5.534;2023-01-16T01:27:33;6.80;;;5.97;;
18296;SDS011;18066;52.106;5.534;2023-01-16T01:30:01;9.33;;;5.53;;
18296;SDS011;18066;52.106;5.534;2023-01-16T01:32:28;8.63;;;5.80;;
18296;SDS011;18066;52.106;5.534;2023-01-16T01:34:55;13.80;;;6.57;;
18296;SDS011;18066;52.106;5.534;2023-01-16T01:37:24;12.63;;;7.30;;
18296;SDS011;18066;52.106;5.534;2023-01-16T01:39:50;13.70;;;7.47;;
18296;SDS011;18066;52.106;5.534;2023-01-16T01:42:17;13.23;;;7.93;;
18296;SDS011;18066;52.106;5.534;2023-01-16T01:45:06;13.97;;;8.53;;
18296;SDS011;18066;52.106;5.534;2023-01-16T01:47:38;11.97;;;7.90;;
18296;SDS011;18066;52.106;5.534;2023-01-16T01:50:11;9.57;;;7.00;;
18296;SDS011;18066;52.106;5.534;2023-01-16T01:52:44;13.10;;;7.83;;
18296;SDS011;18066;52.106;5.534;2023-01-16T01:55:11;13.80;;;7.10;;
18296;SDS011;18066;52.106;5.534;2023-01-16T01:57:41;11.50;;;7.50;;
18296;SDS011;18066;52.106;5.534;2023-01-16T02:00:14;10.50;;;7.33;;
18296;SDS011;18066;52.106;5.534;2023-01-16T02:02:45;13.70;;;7.07;;
18296;SDS011;18066;52.106;5.534;2023-01-16T02:05:18;10.63;;;6.90;;
18296;SDS011;18066;52.106;5.534;2023-01-16T02:07:47;9.17;;;6.43;;
18296;SDS011;18066;52.106;5.534;2023-01-16T02:10:17;11.93;;;6.00;;
18296;SDS011;18066;52.106;5.534;2023-01-16T02:12:48;8.83;;;6.03;;
18296;SDS011;18066;52.106;5.534;2023-01-16T02:15:16;14.80;;;5.73;;
18296;SDS011;18066;52.106;5.534;2023-01-16T02:17:43;12.70;;;5.30;;
18296;SDS011;18066;52.106;5.534;2023-01-16T02:20:28;12.50;;;4.40;;
18296;SDS011;18066;52.106;5.534;2023-01-16T02:23:11;5.43;;;3.90;;
18296;SDS011;18066;52.106;5.534;2023-01-16T02:29:08;7.17;;;3.77;;
18296;SDS011;18066;52.106;5.534;2023-01-16T02:31:47;8.93;;;3.47;;
18296;SDS011;18066;52.106;5.534;2023-01-16T02:34:21;6.47;;;3.00;;
18296;SDS011;18066;52.106;5.534;2023-01-16T02:36:59;5.33;;;2.87;;
18296;SDS011;18066;52.106;5.534;2023-01-16T02:39:38;6.27;;;2.50;;
18296;SDS011;18066;52.106;5.534;2023-01-16T02:42:12;6.40;;;2.63;;
18296;SDS011;18066;52.106;5.534;2023-01-16T02:44:47;6.10;;;2.90;;
18296;SDS011;18066;52.106;5.534;2023-01-16T02:47:21;6.57;;;2.80;;
18296;SDS011;18066;52.106;5.534;2023-01-16T02:49:54;9.63;;;3.70;;
18296;SDS011;18066;52.106;5.534;2023-01-16T02:52:30;5.73;;;3.43;;
18296;SDS011;18066;52.106;5.534;2023-01-16T02:55:03;6.13;;;3.57;;
18296;SDS011;18066;52.106;5.534;2023-01-16T02:57:34;7.97;;;3.90;;
18296;SDS011;18066;52.106;5.534;2023-01-16T03:00:05;7.13;;;3.50;;
18296;SDS011;18066;52.106;5.534;2023-01-16T03:02:35;5.60;;;2.73;;
18296;SDS011;18066;52.106;5.534;2023-01-16T03:05:02;6.73;;;2.63;;
18296;SDS011;18066;52.106;5.534;2023-01-16T03:07:49;5.47;;;2.70;;
18296;SDS011;18066;52.106;5.534;2023-01-16T03:10:51;4.73;;;3.00;;
18296;SDS011;18066;52.106;5.534;2023-01-16T03:13:43;4.53;;;2.30;;
18296;SDS011;18066;52.106;5.534;2023-01-16T03:16:37;3.87;;;2.00;;
18296;SDS011;18066;52.106;5.534;2023-01-16T03:19:13;5.13;;;2.23;;
18296;SDS011;18066;52.106;5.534;2023-01-16T03:21:52;6.67;;;1.77;;
18296;SDS011;18066;52.106;5.534;2023-01-16T03:24:30;3.13;;;1.57;;
18296;SDS011;18066;52.106;5.534;2023-01-16T03:27:07;3.23;;;1.90;;
18296;SDS011;18066;52.106;5.534;2023-01-16T03:29:40;5.33;;;1.60;;
18296;SDS011;18066;52.106;5.534;2023-01-16T03:32:12;6.63;;;1.43;;
18296;SDS011;18066;52.106;5.534;2023-01-16T03:34:53;6.07;;;1.30;;
18296;SDS011;18066;52.106;5.534;2023-01-16T03:37:27;2.97;;;1.67;;
18296;SDS011;18066;52.106;5.534;2023-01-16T03:39:58;6.87;;;1.50;;
18296;SDS011;18066;52.106;5.534;2023-01-16T03:42:29;8.57;;;1.30;;
18296;SDS011;18066;52.106;5.534;2023-01-16T03:45:01;9.23;;;1.50;;
18296;SDS011;18066;52.106;5.534;2023-01-16T03:47:33;2.27;;;0.90;;
18296;SDS011;18066;52.106;5.534;2023-01-16T03:50:06;6.53;;;1.50;;
18296;SDS011;18066;52.106;5.534;2023-01-16T03:52:39;6.30;;;1.60;;
18296;SDS011;18066;52.106;5.534;2023-01-16T03:55:12;4.27;;;1.20;;
18296;SDS011;18066;52.106;5.534;2023-01-16T03:57:44;3.27;;;0.97;;
18296;SDS011;18066;52.106;5.534;2023-01-16T04:00:15;2.70;;;1.03;;
18296;SDS011;18066;52.106;5.534;2023-01-16T04:02:44;1.93;;;1.00;;
18296;SDS011;18066;52.106;5.534;2023-01-16T04:05:16;6.17;;;1.30;;
18296;SDS011;18066;52.106;5.534;2023-01-16T04:07:47;3.40;;;1.20;;
18296;SDS011;18066;52.106;5.534;2023-01-16T04:10:21;2.40;;;0.90;;
18296;SDS011;18066;52.106;5.534;2023-01-16T04:12:51;3.73;;;1.20;;
18296;SDS011;18066;52.106;5.534;2023-01-16T04:15:22;5.60;;;1.57;;
18296;SDS011;18066;52.106;5.534;2023-01-16T04:17:52;5.70;;;1.30;;
18296;SDS011;18066;52.106;5.534;2023-01-16T04:20:22;2.50;;;1.00;;
18296;SDS011;18066;52.106;5.534;2023-01-16T04:22:50;4.50;;;1.33;;
18296;SDS011;18066;52.106;5.534;2023-01-16T04:25:17;1.87;;;0.83;;
18296;SDS011;18066;52.106;5.534;2023-01-16T04:27:46;2.80;;;0.87;;
18296;SDS011;18066;52.106;5.534;2023-01-16T04:30:13;2.60;;;1.10;;
18296;SDS011;18066;52.106;5.534;2023-01-16T04:32:41;2.40;;;1.10;;
18296;SDS011;18066;52.106;5.534;2023-01-16T04:35:08;3.63;;;1.33;;
18296;SDS011;18066;52.106;5.534;2023-01-16T04:37:37;3.87;;;1.20;;
18296;SDS011;18066;52.106;5.534;2023-01-16T04:40:04;6.67;;;1.17;;
18296;SDS011;18066;52.106;5.534;2023-01-16T04:42:33;7.17;;;1.30;;
18296;SDS011;18066;52.106;5.534;2023-01-16T04:45:00;5.57;;;1.77;;
18296;SDS011;18066;52.106;5.534;2023-01-16T04:47:27;6.13;;;1.30;;
18296;SDS011;18066;52.106;5.534;2023-01-16T04:49:54;2.60;;;1.10;;
18296;SDS011;18066;52.106;5.534;2023-01-16T04:52:21;6.57;;;1.47;;
18296;SDS011;18066;52.106;5.534;2023-01-16T04:54:49;5.27;;;1.60;;
18296;SDS011;18066;52.106;5.534;2023-01-16T04:57:16;4.57;;;1.33;;
18296;SDS011;18066;52.106;5.534;2023-01-16T04:59:43;2.80;;;1.43;;
18296;SDS011;18066;52.106;5.534;2023-01-16T05:02:10;5.90;;;1.00;;
18296;SDS011;18066;52.106;5.534;2023-01-16T05:04:36;9.33;;;1.30;;
18296;SDS011;18066;52.106;5.534;2023-01-16T05:07:03;5.07;;;1.00;;
18296;SDS011;18066;52.106;5.534;2023-01-16T05:09:30;4.37;;;1.20;;
18296;SDS011;18066;52.106;5.534;2023-01-16T05:11:58;3.03;;;1.07;;
18296;SDS011;18066;52.106;5.534;2023-01-16T05:14:25;4.77;;;1.07;;
18296;SDS011;18066;52.106;5.534;2023-01-16T05:16:52;5.77;;;1.30;;
18296;SDS011;18066;52.106;5.534;2023-01-16T05:19:18;6.00;;;1.30;;
18296;SDS011;18066;52.106;5.534;2023-01-16T05:21:45;2.73;;;0.70;;
18296;SDS011;18066;52.106;5.534;2023-01-16T05:24:12;2.80;;;0.83;;
18296;SDS011;18066;52.106;5.534;2023-01-16T05:26:39;5.13;;;1.10;;
18296;SDS011;18066;52.106;5.534;2023-01-16T05:29:07;3.93;;;1.13;;
18296;SDS011;18066;52.106;5.534;2023-01-16T05:31:33;1.53;;;0.87;;
18296;SDS011;18066;52.106;5.534;2023-01-16T05:34:00;10.47;;;1.57;;
18296;SDS011;18066;52.106;5.534;2023-01-16T05:36:27;2.40;;;1.10;;
18296;SDS011;18066;52.106;5.534;2023-01-16T05:38:54;7.07;;;1.40;;
18296;SDS011;18066;52.106;5.534;2023-01-16T05:41:20;1.73;;;1.03;;
18296;SDS011;18066;52.106;5.534;2023-01-16T05:43:47;7.87;;;1.17;;
18296;SDS011;18066;52.106;5.534;2023-01-16T05:46:15;5.50;;;1.57;;
18296;SDS011;18066;52.106;5.534;2023-01-16T05:48:42;4.20;;;1.10;;
18296;SDS011;18066;52.106;5.534;2023-01-16T05:51:09;2.40;;;0.90;;
18296;SDS011;18066;52.106;5.534;2023-01-16T05:53:36;3.73;;;1.17;;
18296;SDS011;18066;52.106;5.534;2023-01-16T05:56:06;4.07;;;1.17;;
18296;SDS011;18066;52.106;5.534;2023-01-16T05:58:33;5.87;;;1.53;;
18296;SDS011;18066;52.106;5.534;2023-01-16T06:01:00;3.13;;;1.27;;
18296;SDS011;18066;52.106;5.534;2023-01-16T06:03:29;3.80;;;1.00;;
18296;SDS011;18066;52.106;5.534;2023-01-16T06:05:55;6.57;;;1.20;;
18296;SDS011;18066;52.106;5.534;2023-01-16T06:08:23;4.37;;;1.10;;
18296;SDS011;18066;52.106;5.534;2023-01-16T06:10:50;4.87;;;1.30;;
18296;SDS011;18066;52.106;5.534;2023-01-16T06:13:17;7.80;;;1.23;;
18296;SDS011;18066;52.106;5.534;2023-01-16T06:15:45;7.23;;;1.17;;
18296;SDS011;18066;52.106;5.534;2023-01-16T06:18:12;5.17;;;1.60;;
18296;SDS011;18066;52.106;5.534;2023-01-16T06:20:41;5.13;;;1.00;;
18296;SDS011;18066;52.106;5.534;2023-01-16T06:23:08;4.83;;;1.10;;
18296;SDS011;18066;52.106;5.534;2023-01-16T06:25:35;5.67;;;1.00;;
18296;SDS011;18066;52.106;5.534;2023-01-16T06:28:01;4.03;;;1.13;;
18296;SDS011;18066;52.106;5.534;2023-01-16T06:30:28;4.03;;;0.97;;
18296;SDS011;18066;52.106;5.534;2023-01-16T06:32:55;4.77;;;1.10;;
18296;SDS011;18066;52.106;5.534;2023-01-16T06:35:22;10.97;;;1.40;;
18296;SDS011;18066;52.106;5.534;2023-01-16T06:37:50;5.37;;;1.00;;
18296;SDS011;18066;52.106;5.534;2023-01-16T06:40:17;5.50;;;1.20;;
18296;SDS011;18066;52.106;5.534;2023-01-16T06:42:44;3.77;;;0.87;;
18296;SDS011;18066;52.106;5.534;2023-01-16T06:45:11;7.23;;;1.00;;
18296;SDS011;18066;52.106;5.534;2023-01-16T06:47:38;4.17;;;1.27;;
18296;SDS011;18066;52.106;5.534;2023-01-16T06:50:05;2.60;;;1.00;;
18296;SDS011;18066;52.106;5.534;2023-01-16T06:52:32;6.50;;;1.63;;
18296;SDS011;18066;52.106;5.534;2023-01-16T06:55:01;2.00;;;0.90;;
18296;SDS011;18066;52.106;5.534;2023-01-16T06:57:28;3.40;;;0.80;;
18296;SDS011;18066;52.106;5.534;2023-01-16T06:59:54;2.00;;;0.80;;
18296;SDS011;18066;52.106;5.534;2023-01-16T07:02:21;2.77;;;0.90;;
18296;SDS011;18066;52.106;5.534;2023-01-16T07:04:48;4.90;;;1.30;;
18296;SDS011;18066;52.106;5.534;2023-01-16T07:07:15;7.33;;;0.83;;
18296;SDS011;18066;52.106;5.534;2023-01-16T07:09:41;6.83;;;1.30;;
18296;SDS011;18066;52.106;5.534;2023-01-16T07:12:11;2.93;;;1.60;;
18296;SDS011;18066;52.106;5.534;2023-01-16T07:14:38;6.20;;;1.80;;
18296;SDS011;18066;52.106;5.534;2023-01-16T07:17:22;4.27;;;1.00;;
18296;SDS011;18066;52.106;5.534;2023-01-16T07:20:08;6.70;;;1.70;;
18296;SDS011;18066;52.106;5.534;2023-01-16T07:22:54;140.23;;;8.60;;
18296;SDS011;18066;52.106;5.534;2023-01-16T07:25:23;4.80;;;1.23;;
18296;SDS011;18066;52.106;5.534;2023-01-16T07:28:01;1.23;;;0.73;;
18296;SDS011;18066;52.106;5.534;2023-01-16T07:30:28;2.07;;;1.13;;
18296;SDS011;18066;52.106;5.534;2023-01-16T07:32:55;3.13;;;1.17;;
18296;SDS011;18066;52.106;5.534;2023-01-16T07:35:22;5.60;;;1.20;;
18296;SDS011;18066;52.106;5.534;2023-01-16T07:37:49;10.27;;;4.00;;
18296;SDS011;18066;52.106;5.534;2023-01-16T07:40:21;4.00;;;1.30;;
18296;SDS011;18066;52.106;5.534;2023-01-16T07:42:48;5.90;;;1.47;;
18296;SDS011;18066;52.106;5.534;2023-01-16T07:45:17;3.53;;;1.00;;
18296;SDS011;18066;52.106;5.534;2023-01-16T07:47:43;4.73;;;1.27;;
18296;SDS011;18066;52.106;5.534;2023-01-16T07:50:10;2.87;;;1.43;;
18296;SDS011;18066;52.106;5.534;2023-01-16T07:52:37;6.67;;;1.60;;
18296;SDS011;18066;52.106;5.534;2023-01-16T07:55:04;3.77;;;2.13;;
18296;SDS011;18066;52.106;5.534;2023-01-16T07:57:31;2.70;;;1.20;;
18296;SDS011;18066;52.106;5.534;2023-01-16T08:00:01;4.67;;;3.63;;
18296;SDS011;18066;52.106;5.534;2023-01-16T08:02:30;6.93;;;1.83;;
18296;SDS011;18066;52.106;5.534;2023-01-16T08:04:57;7.00;;;2.27;;
18296;SDS011;18066;52.106;5.534;2023-01-16T08:07:24;6.80;;;4.43;;
18296;SDS011;18066;52.106;5.534;2023-01-16T08:09:50;4.93;;;2.70;;
18296;SDS011;18066;52.106;5.534;2023-01-16T08:12:17;7.53;;;6.27;;
18296;SDS011;18066;52.106;5.534;2023-01-16T08:14:44;6.10;;;4.40;;
18296;SDS011;18066;52.106;5.534;2023-01-16T08:17:11;4.20;;;2.37;;
18296;SDS011;18066;52.106;5.534;2023-01-16T08:19:39;2.77;;;1.70;;
18296;SDS011;18066;52.106;5.534;2023-01-16T08:22:06;5.20;;;4.07;;
18296;SDS011;18066;52.106;5.534;2023-01-16T08:24:32;3.20;;;2.30;;
18296;SDS011;18066;52.106;5.534;2023-01-16T08:26:59;5.70;;;3.00;;
18296;SDS011;18066;52.106;5.534;2023-01-16T08:29:26;5.33;;;3.20;;
18296;SDS011;18066;52.106;5.534;2023-01-16T08:31:53;3.60;;;2.73;;
18296;SDS011;18066;52.106;5.534;2023-01-16T08:34:20;2.83;;;2.03;;
18296;SDS011;18066;52.106;5.534;2023-01-16T08:36:48;2.50;;;1.53;;
18296;SDS011;18066;52.106;5.534;2023-01-16T08:39:14;3.50;;;1.63;;
18296;SDS011;18066;52.106;5.534;2023-01-16T08:41:41;6.33;;;1.80;;
18296;SDS011;18066;52.106;5.534;2023-01-16T08:44:25;2.07;;;1.60;;
18296;SDS011;18066;52.106;5.534;2023-01-16T08:47:10;2.47;;;1.50;;
18296;SDS011;18066;52.106;5.534;2023-01-16T08:49:56;3.67;;;2.20;;
18296;SDS011;18066;52.106;5.534;2023-01-16T08:52:42;3.23;;;1.50;;
18296;SDS011;18066;52.106;5.534;2023-01-16T08:55:10;4.90;;;3.27;;
18296;SDS011;18066;52.106;5.534;2023-01-16T08:57:38;3.60;;;2.13;;
18296;SDS011;18066;52.106;5.534;2023-01-16T09:00:06;2.60;;;1.60;;
18296;SDS011;18066;52.106;5.534;2023-01-16T09:02:33;2.67;;;1.83;;
18296;SDS011;18066;52.106;5.534;2023-01-16T09:05:01;2.33;;;1.37;;
18296;SDS011;18066;52.106;5.534;2023-01-16T09:07:28;4.90;;;1.50;;
18296;SDS011;18066;52.106;5.534;2023-01-16T09:09:56;3.17;;;1.20;;
18296;SDS011;18066;52.106;5.534;2023-01-16T09:12:23;6.77;;;1.17;;
18296;SDS011;18066;52.106;5.534;2023-01-16T09:15:07;4.50;;;1.30;;
18296;SDS011;18066;52.106;5.534;2023-01-16T09:17:34;5.43;;;1.50;;
18296;SDS011;18066;52.106;5.534;2023-01-16T09:20:01;4.23;;;1.20;;
18296;SDS011;18066;52.106;5.534;2023-01-16T09:22:29;5.40;;;2.03;;
18296;SDS011;18066;52.106;5.534;2023-01-16T09:24:59;4.80;;;1.20;;
18296;SDS011;18066;52.106;5.534;2023-01-16T09:27:26;3.37;;;1.80;;
18296;SDS011;18066;52.106;5.534;2023-01-16T09:29:52;2.13;;;1.23;;
18296;SDS011;18066;52.106;5.534;2023-01-16T09:32:19;14.00;;;2.67;;
18296;SDS011;18066;52.106;5.534;2023-01-16T09:34:46;4.63;;;1.50;;
18296;SDS011;18066;52.106;5.534;2023-01-16T09:37:13;4.20;;;1.70;;
18296;SDS011;18066;52.106;5.534;2023-01-16T09:39:39;3.07;;;1.30;;
18296;SDS011;18066;52.106;5.534;2023-01-16T09:42:14;3.37;;;1.40;;
18296;SDS011;18066;52.106;5.534;2023-01-16T09:45:12;6.23;;;1.07;;
18296;SDS011;18066;52.106;5.534;2023-01-16T09:47:42;3.23;;;1.30;;
18296;SDS011;18066;52.106;5.534;2023-01-16T09:50:13;3.80;;;1.53;;
18296;SDS011;18066;52.106;5.534;2023-01-16T09:52:45;6.63;;;1.83;;
18296;SDS011;18066;52.106;5.534;2023-01-16T09:55:33;4.00;;;1.30;;
18296;SDS011;18066;52.106;5.534;2023-01-16T09:58:23;2.33;;;1.57;;
18296;SDS011;18066;52.106;5.534;2023-01-16T10:01:02;3.47;;;1.23;;
18296;SDS011;18066;52.106;5.534;2023-01-16T10:03:32;3.27;;;1.43;;
18296;SDS011;18066;52.106;5.534;2023-01-16T10:06:02;4.03;;;1.30;;
18296;SDS011;18066;52.106;5.534;2023-01-16T10:08:42;1.07;;;0.97;;
18296;SDS011;18066;52.106;5.534;2023-01-16T10:11:18;6.00;;;1.43;;
18296;SDS011;18066;52.106;5.534;2023-01-16T10:13:57;1.80;;;1.10;;
18296;SDS011;18066;52.106;5.534;2023-01-16T10:16:40;1.00;;;0.90;;
18296;SDS011;18066;52.106;5.534;2023-01-16T10:19:19;2.67;;;1.10;;
18296;SDS011;18066;52.106;5.534;2023-01-16T10:22:00;2.87;;;1.27;;
18296;SDS011;18066;52.106;5.534;2023-01-16T10:24:36;2.87;;;1.17;;
18296;SDS011;18066;52.106;5.534;2023-01-16T10:27:13;2.53;;;0.90;;
18296;SDS011;18066;52.106;5.534;2023-01-16T10:29:47;1.27;;;1.13;;
18296;SDS011;18066;52.106;5.534;2023-01-16T10:32:19;1.07;;;0.80;;
18296;SDS011;18066;52.106;5.534;2023-01-16T10:34:53;4.03;;;1.20;;
18296;SDS011;18066;52.106;5.534;2023-01-16T10:37:25;3.93;;;1.07;;
18296;SDS011;18066;52.106;5.534;2023-01-16T10:39:52;1.50;;;1.03;;
18296;SDS011;18066;52.106;5.534;2023-01-16T10:42:21;1.57;;;0.80;;
18296;SDS011;18066;52.106;5.534;2023-01-16T10:45:13;1.50;;;0.73;;
18296;SDS011;18066;52.106;5.534;2023-01-16T10:47:59;2.20;;;0.50;;
18296;SDS011;18066;52.106;5.534;2023-01-16T10:50:44;3.23;;;0.70;;
18296;SDS011;18066;52.106;5.534;2023-01-16T10:53:12;1.83;;;0.60;;
18296;SDS011;18066;52.106;5.534;2023-01-16T10:55:40;1.57;;;0.90;;
18296;SDS011;18066;52.106;5.534;2023-01-16T10:58:15;1.30;;;0.80;;
18296;SDS011;18066;52.106;5.534;2023-01-16T11:00:50;2.80;;;0.83;;
18296;SDS011;18066;52.106;5.534;2023-01-16T11:03:21;2.63;;;0.80;;
18296;SDS011;18066;52.106;5.534;2023-01-16T11:05:56;3.67;;;0.70;;
18296;SDS011;18066;52.106;5.534;2023-01-16T11:08:37;1.13;;;0.80;;
18296;SDS011;18066;52.106;5.534;2023-01-16T11:11:04;1.00;;;0.83;;
18296;SDS011;18066;52.106;5.534;2023-01-16T11:13:51;5.30;;;0.97;;
18296;SDS011;18066;52.106;5.534;2023-01-16T11:16:37;1.17;;;0.77;;
18296;SDS011;18066;52.106;5.534;2023-01-16T11:19:22;0.77;;;0.70;;
18296;SDS011;18066;52.106;5.534;2023-01-16T11:21:52;4.87;;;0.73;;
18296;SDS011;18066;52.106;5.534;2023-01-16T11:24:21;2.57;;;0.77;;
18296;SDS011;18066;52.106;5.534;2023-01-16T11:26:50;1.93;;;0.93;;
18296;SDS011;18066;52.106;5.534;2023-01-16T11:29:20;2.37;;;1.13;;
18296;SDS011;18066;52.106;5.534;2023-01-16T11:31:52;2.53;;;0.80;;
18296;SDS011;18066;52.106;5.534;2023-01-16T11:34:23;7.03;;;0.87;;
18296;SDS011;18066;52.106;5.534;2023-01-16T11:36:53;3.20;;;0.80;;
18296;SDS011;18066;52.106;5.534;2023-01-16T11:39:21;1.13;;;0.87;;
18296;SDS011;18066;52.106;5.534;2023-01-16T11:41:52;1.47;;;0.80;;
18296;SDS011;18066;52.106;5.534;2023-01-16T11:44:20;1.50;;;0.97;;
18296;SDS011;18066;52.106;5.534;2023-01-16T11:47:11;4.27;;;1.00;;
18296;SDS011;18066;52.106;5.534;2023-01-16T11:49:41;3.50;;;0.90;;
18296;SDS011;18066;52.106;5.534;2023-01-16T11:52:12;1.37;;;0.87;;
18296;SDS011;18066;52.106;5.534;2023-01-16T11:54:52;2.90;;;1.20;;
18296;SDS011;18066;52.106;5.534;2023-01-16T11:57:22;1.30;;;0.77;;
18296;SDS011;18066;52.106;5.534;2023-01-16T12:00:03;0.70;;;0.70;;
18296;SDS011;18066;52.106;5.534;2023-01-16T12:05:55;1.47;;;0.80;;
18296;SDS011;18066;52.106;5.534;2023-01-16T12:11:44;1.88;;;1.10;;
18296;SDS011;18066;52.106;5.534;2023-01-16T12:14:45;5.20;;;0.80;;
18296;SDS011;18066;52.106;5.534;2023-01-16T12:17:18;11.47;;;1.70;;
18296;SDS011;18066;52.106;5.534;2023-01-16T12:20:04;1.13;;;0.60;;
18296;SDS011;18066;52.106;5.534;2023-01-16T12:22:42;4.20;;;0.90;;
18296;SDS011;18066;52.106;5.534;2023-01-16T12:25:24;5.50;;;0.90;;
18296;SDS011;18066;52.106;5.534;2023-01-16T12:27:57;2.40;;;0.70;;
18296;SDS011;18066;52.106;5.534;2023-01-16T12:30:37;1.37;;;0.40;;
18296;SDS011;18066;52.106;5.534;2023-01-16T12:33:16;0.93;;;0.60;;
18296;SDS011;18066;52.106;5.534;2023-01-16T12:35:53;8.93;;;0.93;;
18296;SDS011;18066;52.106;5.534;2023-01-16T12:38:31;50.73;;;4.50;;
18296;SDS011;18066;52.106;5.534;2023-01-16T12:41:12;3.80;;;0.70;;
18296;SDS011;18066;52.106;5.534;2023-01-16T12:47:00;0.60;;;0.50;;
18296;SDS011;18066;52.106;5.534;2023-01-16T12:49:55;1.43;;;1.07;;
18296;SDS011;18066;52.106;5.534;2023-01-16T12:52:40;3.47;;;0.80;;
18296;SDS011;18066;52.106;5.534;2023-01-16T12:55:22;1.07;;;0.50;;
18296;SDS011;18066;52.106;5.534;2023-01-16T12:58:06;1.53;;;0.90;;
18296;SDS011;18066;52.106;5.534;2023-01-16T13:00:38;1.87;;;0.90;;
18296;SDS011;18066;52.106;5.534;2023-01-16T13:03:14;2.27;;;0.70;;
18296;SDS011;18066;52.106;5.534;2023-01-16T13:05:47;0.83;;;0.70;;
18296;SDS011;18066;52.106;5.534;2023-01-16T13:08:17;1.07;;;0.70;;
18296;SDS011;18066;52.106;5.534;2023-01-16T13:10:50;1.77;;;0.60;;
18296;SDS011;18066;52.106;5.534;2023-01-16T13:13:40;17.60;;;2.77;;
18296;SDS011;18066;52.106;5.534;2023-01-16T13:16:14;2.63;;;1.10;;
18296;SDS011;18066;52.106;5.534;2023-01-16T13:18:47;1.13;;;0.90;;
18296;SDS011;18066;52.106;5.534;2023-01-16T13:21:19;2.37;;;1.40;;
18296;SDS011;18066;52.106;5.534;2023-01-16T13:23:51;12.40;;;2.93;;
18296;SDS011;18066;52.106;5.534;2023-01-16T13:26:23;1.27;;;0.63;;
18296;SDS011;18066;52.106;5.534;2023-01-16T13:28:54;0.47;;;0.47;;
18296;SDS011;18066;52.106;5.534;2023-01-16T13:31:27;1.03;;;0.50;;
18296;SDS011;18066;52.106;5.534;2023-01-16T13:34:00;1.17;;;0.73;;
18296;SDS011;18066;52.106;5.534;2023-01-16T13:36:49;1.07;;;0.53;;
18296;SDS011;18066;52.106;5.534;2023-01-16T13:39:47;0.87;;;0.67;;
18296;SDS011;18066;52.106;5.534;2023-01-16T13:42:32;2.10;;;0.80;;
18296;SDS011;18066;52.106;5.534;2023-01-16T13:45:05;2.03;;;0.70;;
18296;SDS011;18066;52.106;5.534;2023-01-16T13:47:59;7.27;;;0.77;;
18296;SDS011;18066;52.106;5.534;2023-01-16T13:50:27;1.30;;;0.70;;
18296;SDS011;18066;52.106;5.534;2023-01-16T13:52:56;0.90;;;0.57;;
18296;SDS011;18066;52.106;5.534;2023-01-16T13:55:28;0.90;;;0.67;;
18296;SDS011;18066;52.106;5.534;2023-01-16T13:58:06;1.27;;;0.70;;
18296;SDS011;18066;52.106;5.534;2023-01-16T14:00:35;1.13;;;0.63;;
18296;SDS011;18066;52.106;5.534;2023-01-16T14:03:18;1.27;;;0.70;;
18296;SDS011;18066;52.106;5.534;2023-01-16T14:05:48;0.70;;;0.70;;
18296;SDS011;18066;52.106;5.534;2023-01-16T14:08:27;1.57;;;0.87;;
18296;SDS011;18066;52.106;5.534;2023-01-16T14:11:28;1.97;;;0.80;;
18296;SDS011;18066;52.106;5.534;2023-01-16T14:17:27;0.60;;;0.60;;
18296;SDS011;18066;52.106;5.534;2023-01-16T14:19:57;0.63;;;0.50;;
18296;SDS011;18066;52.106;5.534;2023-01-16T14:22:26;4.47;;;0.80;;
18296;SDS011;18066;52.106;5.534;2023-01-16T14:25:20;0.63;;;0.40;;
18296;SDS011;18066;52.106;5.534;2023-01-16T14:27:50;0.83;;;0.60;;
18296;SDS011;18066;52.106;5.534;2023-01-16T14:30:20;0.50;;;0.50;;
18296;SDS011;18066;52.106;5.534;2023-01-16T14:32:53;0.90;;;0.53;;
18296;SDS011;18066;52.106;5.534;2023-01-16T14:35:23;1.57;;;0.97;;
18296;SDS011;18066;52.106;5.534;2023-01-16T14:37:56;1.80;;;1.10;;
18296;SDS011;18066;52.106;5.534;2023-01-16T14:40:26;1.50;;;1.03;;
18296;SDS011;18066;52.106;5.534;2023-01-16T14:43:13;8.03;;;4.90;;
18296;SDS011;18066;52.106;5.534;2023-01-16T14:46:13;3.47;;;1.70;;
18296;SDS011;18066;52.106;5.534;2023-01-16T14:52:45;1.43;;;0.93;;
18296;SDS011;18066;52.106;5.534;2023-01-16T14:55:36;2.77;;;0.90;;
18296;SDS011;18066;52.106;5.534;2023-01-16T14:58:13;1.13;;;0.80;;
18296;SDS011;18066;52.106;5.534;2023-01-16T15:00:47;2.67;;;1.20;;
18296;SDS011;18066;52.106;5.534;2023-01-16T15:03:19;3.50;;;0.70;;
18296;SDS011;18066;52.106;5.534;2023-01-16T15:05:50;1.23;;;0.90;;
18296;SDS011;18066;52.106;5.534;2023-01-16T15:08:22;0.87;;;0.70;;
18296;SDS011;18066;52.106;5.534;2023-01-16T15:10:51;2.63;;;0.87;;
18296;SDS011;18066;52.106;5.534;2023-01-16T15:13:20;1.20;;;1.00;;
18296;SDS011;18066;52.106;5.534;2023-01-16T15:15:49;1.60;;;0.73;;
18296;SDS011;18066;52.106;5.534;2023-01-16T15:18:19;0.93;;;0.80;;
18296;SDS011;18066;52.106;5.534;2023-01-16T15:21:10;1.03;;;0.80;;
18296;SDS011;18066;52.106;5.534;2023-01-16T15:23:57;2.57;;;0.80;;
18296;SDS011;18066;52.106;5.534;2023-01-16T15:26:33;1.30;;;0.73;;
18296;SDS011;18066;52.106;5.534;2023-01-16T15:29:12;2.13;;;0.63;;
18296;SDS011;18066;52.106;5.534;2023-01-16T15:31:53;1.23;;;0.90;;
18296;SDS011;18066;52.106;5.534;2023-01-16T15:34:25;2.50;;;1.07;;
18296;SDS011;18066;52.106;5.534;2023-01-16T15:36:54;1.00;;;0.90;;